sensor_id;sensor_type;location;lat;lon;timestamp;temperature;humidity
35613;DHT22;22054;51.646;7.078;2022-07-03T00:00:41;19.40;99.90
35613;DHT22;22054;51.646;7.078;2022-07-03T00:03:07;19.50;11.90
35613;DHT22;22054;51.646;7.078;2022-07-03T00:05:32;19.40;1.00
35613;DHT22;22054;51.646;7.078;2022-07-03T00:07:58;19.40;1.00
35613;DHT22;22054;51.646;7.078;2022-07-03T00:10:24;19.30;1.00
35613;DHT22;22054;51.646;7.078;2022-07-03T00:12:49;19.20;1.00
35613;DHT22;22054;51.646;7.078;2022-07-03T00:15:15;19.10;1.00
35613;DHT22;22054;51.646;7.078;2022-07-03T00:17:41;19.10;99.90
35613;DHT22;22054;51.646;7.078;2022-07-03T00:20:06;19.00;1.00
35613;DHT22;22054;51.646;7.078;2022-07-03T00:22:33;18.80;99.90
35613;DHT22;22054;51.646;7.078;2022-07-03T00:25:03;19.10;99.90
35613;DHT22;22054;51.646;7.078;2022-07-03T00:27:33;18.70;99.90
35613;DHT22;22054;51.646;7.078;2022-07-03T00:30:00;18.70;1.00
35613;DHT22;22054;51.646;7.078;2022-07-03T00:32:27;18.70;1.00
35613;DHT22;22054;51.646;7.078;2022-07-03T00:34:54;18.60;1.00
35613;DHT22;22054;51.646;7.078;2022-07-03T00:37:21;18.60;1.00
35613;DHT22;22054;51.646;7.078;2022-07-03T00:39:47;18.60;1.00
35613;DHT22;22054;51.646;7.078;2022-07-03T00:42:14;18.80;1.00
35613;DHT22;22054;51.646;7.078;2022-07-03T00:44:44;18.50;1.00
35613;DHT22;22054;51.646;7.078;2022-07-03T00:47:12;18.60;1.00
35613;DHT22;22054;51.646;7.078;2022-07-03T00:49:39;18.50;1.00
35613;DHT22;22054;51.646;7.078;2022-07-03T00:52:05;18.60;1.00
35613;DHT22;22054;51.646;7.078;2022-07-03T00:54:34;18.50;1.00
35613;DHT22;22054;51.646;7.078;2022-07-03T00:57:01;18.40;1.00
35613;DHT22;22054;51.646;7.078;2022-07-03T00:59:27;18.50;1.00
35613;DHT22;22054;51.646;7.078;2022-07-03T01:02:02;18.50;1.00
35613;DHT22;22054;51.646;7.078;2022-07-03T01:07:18;18.40;1.00
35613;DHT22;22054;51.646;7.078;2022-07-03T01:10:04;18.30;1.00
35613;DHT22;22054;51.646;7.078;2022-07-03T01:20:58;18.30;1.00
35613;DHT22;22054;51.646;7.078;2022-07-03T01:23:36;18.40;1.00
35613;DHT22;22054;51.646;7.078;2022-07-03T01:26:27;18.30;1.00
35613;DHT22;22054;51.646;7.078;2022-07-03T01:28:53;18.20;1.00
35613;DHT22;22054;51.646;7.078;2022-07-03T01:31:20;18.20;1.00
35613;DHT22;22054;51.646;7.078;2022-07-03T01:33:47;18.10;1.00
35613;DHT22;22054;51.646;7.078;2022-07-03T01:36:15;18.00;1.00
35613;DHT22;22054;51.646;7.078;2022-07-03T01:38:41;18.00;1.00
35613;DHT22;22054;51.646;7.078;2022-07-03T01:41:10;18.10;1.00
35613;DHT22;22054;51.646;7.078;2022-07-03T01:43:47;18.00;1.00
35613;DHT22;22054;51.646;7.078;2022-07-03T01:46:15;18.10;1.00
35613;DHT22;22054;51.646;7.078;2022-07-03T01:48:42;18.30;1.00
35613;DHT22;22054;51.646;7.078;2022-07-03T01:51:18;18.30;1.00
35613;DHT22;22054;51.646;7.078;2022-07-03T01:53:47;18.30;1.00
35613;DHT22;22054;51.646;7.078;2022-07-03T01:56:14;18.30;1.00
35613;DHT22;22054;51.646;7.078;2022-07-03T01:58:40;18.20;1.00
35613;DHT22;22054;51.646;7.078;2022-07-03T02:01:08;18.50;1.00
35613;DHT22;22054;51.646;7.078;2022-07-03T02:09:44;18.20;1.00
35613;DHT22;22054;51.646;7.078;2022-07-03T02:12:13;18.20;1.00
35613;DHT22;22054;51.646;7.078;2022-07-03T02:14:40;18.30;1.00
35613;DHT22;22054;51.646;7.078;2022-07-03T02:17:20;18.30;1.00
35613;DHT22;22054;51.646;7.078;2022-07-03T02:22:22;18.20;1.00
35613;DHT22;22054;51.646;7.078;2022-07-03T02:24:50;18.20;1.00
35613;DHT22;22054;51.646;7.078;2022-07-03T02:27:20;18.00;1.00
35613;DHT22;22054;51.646;7.078;2022-07-03T02:30:08;18.00;1.00
35613;DHT22;22054;51.646;7.078;2022-07-03T02:32:35;18.00;1.00
35613;DHT22;22054;51.646;7.078;2022-07-03T02:35:07;17.90;1.00
35613;DHT22;22054;51.646;7.078;2022-07-03T02:37:41;17.90;1.00
35613;DHT22;22054;51.646;7.078;2022-07-03T02:40:20;17.80;1.00
35613;DHT22;22054;51.646;7.078;2022-07-03T02:45:26;17.70;1.00
35613;DHT22;22054;51.646;7.078;2022-07-03T02:48:02;17.70;1.00
35613;DHT22;22054;51.646;7.078;2022-07-03T02:50:33;17.70;1.00
35613;DHT22;22054;51.646;7.078;2022-07-03T02:55:40;17.70;1.00
35613;DHT22;22054;51.646;7.078;2022-07-03T02:58:27;17.70;1.00
35613;DHT22;22054;51.646;7.078;2022-07-03T03:01:05;17.70;1.00
35613;DHT22;22054;51.646;7.078;2022-07-03T03:03:33;17.70;1.00
35613;DHT22;22054;51.646;7.078;2022-07-03T03:06:03;17.70;1.00
35613;DHT22;22054;51.646;7.078;2022-07-03T03:13:55;17.70;1.00
35613;DHT22;22054;51.646;7.078;2022-07-03T03:16:22;17.70;1.00
35613;DHT22;22054;51.646;7.078;2022-07-03T03:18:48;17.90;1.00
35613;DHT22;22054;51.646;7.078;2022-07-03T03:21:15;17.80;1.00
35613;DHT22;22054;51.646;7.078;2022-07-03T03:23:46;17.60;1.00
35613;DHT22;22054;51.646;7.078;2022-07-03T03:26:19;17.70;1.00
35613;DHT22;22054;51.646;7.078;2022-07-03T03:28:46;17.70;1.00
35613;DHT22;22054;51.646;7.078;2022-07-03T03:31:13;17.80;1.00
35613;DHT22;22054;51.646;7.078;2022-07-03T03:33:39;17.70;1.00
35613;DHT22;22054;51.646;7.078;2022-07-03T03:36:09;17.70;1.00
35613;DHT22;22054;51.646;7.078;2022-07-03T03:38:37;17.70;1.00
35613;DHT22;22054;51.646;7.078;2022-07-03T03:41:04;17.70;1.00
35613;DHT22;22054;51.646;7.078;2022-07-03T03:43:30;17.60;1.00
35613;DHT22;22054;51.646;7.078;2022-07-03T03:45:57;17.60;1.00
35613;DHT22;22054;51.646;7.078;2022-07-03T03:48:23;17.50;1.00
35613;DHT22;22054;51.646;7.078;2022-07-03T03:50:49;17.30;1.00
35613;DHT22;22054;51.646;7.078;2022-07-03T03:53:15;17.40;1.00
35613;DHT22;22054;51.646;7.078;2022-07-03T03:58:29;17.40;1.00
35613;DHT22;22054;51.646;7.078;2022-07-03T04:00:59;17.40;1.00
35613;DHT22;22054;51.646;7.078;2022-07-03T04:03:26;17.30;1.00
35613;DHT22;22054;51.646;7.078;2022-07-03T04:05:53;17.40;1.00
35613;DHT22;22054;51.646;7.078;2022-07-03T04:08:19;17.40;1.00
35613;DHT22;22054;51.646;7.078;2022-07-03T04:10:45;17.20;1.00
35613;DHT22;22054;51.646;7.078;2022-07-03T04:13:12;17.30;1.00
35613;DHT22;22054;51.646;7.078;2022-07-03T04:15:37;17.30;1.00
35613;DHT22;22054;51.646;7.078;2022-07-03T04:18:03;17.30;1.00
35613;DHT22;22054;51.646;7.078;2022-07-03T04:20:29;17.40;1.00
35613;DHT22;22054;51.646;7.078;2022-07-03T04:22:56;17.40;1.00
35613;DHT22;22054;51.646;7.078;2022-07-03T04:25:22;17.50;1.00
35613;DHT22;22054;51.646;7.078;2022-07-03T04:27:48;17.50;1.00
35613;DHT22;22054;51.646;7.078;2022-07-03T04:30:14;17.50;1.00
35613;DHT22;22054;51.646;7.078;2022-07-03T04:32:39;17.50;1.00
35613;DHT22;22054;51.646;7.078;2022-07-03T04:35:05;17.60;1.00
35613;DHT22;22054;51.646;7.078;2022-07-03T04:37:31;17.60;1.00
35613;DHT22;22054;51.646;7.078;2022-07-03T04:39:57;17.70;1.00
35613;DHT22;22054;51.646;7.078;2022-07-03T04:42:23;17.70;1.00
35613;DHT22;22054;51.646;7.078;2022-07-03T04:44:48;17.70;1.00
35613;DHT22;22054;51.646;7.078;2022-07-03T04:47:14;17.80;1.00
35613;DHT22;22054;51.646;7.078;2022-07-03T04:49:44;17.80;1.00
35613;DHT22;22054;51.646;7.078;2022-07-03T04:52:09;17.70;1.00
35613;DHT22;22054;51.646;7.078;2022-07-03T04:54:35;17.80;1.00
35613;DHT22;22054;51.646;7.078;2022-07-03T04:57:01;17.70;1.00
35613;DHT22;22054;51.646;7.078;2022-07-03T04:59:27;17.70;1.00
35613;DHT22;22054;51.646;7.078;2022-07-03T05:01:53;17.80;1.00
35613;DHT22;22054;51.646;7.078;2022-07-03T05:04:19;17.70;1.00
35613;DHT22;22054;51.646;7.078;2022-07-03T05:06:44;17.70;1.00
35613;DHT22;22054;51.646;7.078;2022-07-03T05:09:10;17.70;1.00
35613;DHT22;22054;51.646;7.078;2022-07-03T05:11:36;17.70;1.00
35613;DHT22;22054;51.646;7.078;2022-07-03T05:14:02;17.70;1.00
35613;DHT22;22054;51.646;7.078;2022-07-03T05:16:28;17.60;1.00
35613;DHT22;22054;51.646;7.078;2022-07-03T05:18:53;17.70;1.00
35613;DHT22;22054;51.646;7.078;2022-07-03T05:21:19;17.70;1.00
35613;DHT22;22054;51.646;7.078;2022-07-03T05:23:45;17.80;1.00
35613;DHT22;22054;51.646;7.078;2022-07-03T05:26:10;17.80;1.00
35613;DHT22;22054;51.646;7.078;2022-07-03T05:28:36;17.80;1.00
35613;DHT22;22054;51.646;7.078;2022-07-03T05:31:02;18.00;1.00
35613;DHT22;22054;51.646;7.078;2022-07-03T05:33:27;18.00;1.00
35613;DHT22;22054;51.646;7.078;2022-07-03T05:35:56;18.10;1.00
35613;DHT22;22054;51.646;7.078;2022-07-03T05:38:22;18.20;1.00
35613;DHT22;22054;51.646;7.078;2022-07-03T05:41:07;18.60;1.00
35613;DHT22;22054;51.646;7.078;2022-07-03T05:43:33;18.70;1.00
35613;DHT22;22054;51.646;7.078;2022-07-03T05:45:58;18.70;1.00
35613;DHT22;22054;51.646;7.078;2022-07-03T05:48:24;18.90;1.00
35613;DHT22;22054;51.646;7.078;2022-07-03T05:50:50;18.90;1.00
35613;DHT22;22054;51.646;7.078;2022-07-03T05:53:16;19.00;1.00
35613;DHT22;22054;51.646;7.078;2022-07-03T05:55:41;19.10;1.00
35613;DHT22;22054;51.646;7.078;2022-07-03T05:58:07;19.20;1.00
35613;DHT22;22054;51.646;7.078;2022-07-03T06:00:32;19.20;1.00
35613;DHT22;22054;51.646;7.078;2022-07-03T06:02:58;19.30;1.00
35613;DHT22;22054;51.646;7.078;2022-07-03T06:05:24;19.60;1.00
35613;DHT22;22054;51.646;7.078;2022-07-03T06:07:51;19.50;99.90
35613;DHT22;22054;51.646;7.078;2022-07-03T06:10:17;19.80;45.70
35613;DHT22;22054;51.646;7.078;2022-07-03T06:12:42;19.70;1.00
35613;DHT22;22054;51.646;7.078;2022-07-03T06:15:08;19.80;99.90
35613;DHT22;22054;51.646;7.078;2022-07-03T06:17:35;19.90;1.00
35613;DHT22;22054;51.646;7.078;2022-07-03T06:20:04;20.00;1.00
35613;DHT22;22054;51.646;7.078;2022-07-03T06:22:31;20.20;1.00
35613;DHT22;22054;51.646;7.078;2022-07-03T06:24:56;20.30;88.00
35613;DHT22;22054;51.646;7.078;2022-07-03T06:27:22;20.40;1.00
35613;DHT22;22054;51.646;7.078;2022-07-03T06:29:48;20.50;1.00
35613;DHT22;22054;51.646;7.078;2022-07-03T06:32:15;20.60;1.00
35613;DHT22;22054;51.646;7.078;2022-07-03T06:34:41;20.50;1.00
35613;DHT22;22054;51.646;7.078;2022-07-03T06:37:10;20.60;1.00
35613;DHT22;22054;51.646;7.078;2022-07-03T06:39:36;20.60;99.90
35613;DHT22;22054;51.646;7.078;2022-07-03T06:42:02;20.70;1.00
35613;DHT22;22054;51.646;7.078;2022-07-03T06:44:27;20.70;1.00
35613;DHT22;22054;51.646;7.078;2022-07-03T06:46:53;20.80;99.90
35613;DHT22;22054;51.646;7.078;2022-07-03T06:49:19;20.60;1.00
35613;DHT22;22054;51.646;7.078;2022-07-03T06:51:45;20.50;99.90
35613;DHT22;22054;51.646;7.078;2022-07-03T06:54:11;20.40;99.90
35613;DHT22;22054;51.646;7.078;2022-07-03T06:56:36;20.70;1.00
35613;DHT22;22054;51.646;7.078;2022-07-03T06:59:02;20.70;1.00
35613;DHT22;22054;51.646;7.078;2022-07-03T07:01:28;20.90;1.00
35613;DHT22;22054;51.646;7.078;2022-07-03T07:03:54;21.00;32.10
35613;DHT22;22054;51.646;7.078;2022-07-03T07:06:19;21.10;36.10
35613;DHT22;22054;51.646;7.078;2022-07-03T07:08:45;21.10;1.00
35613;DHT22;22054;51.646;7.078;2022-07-03T07:11:11;21.10;1.00
35613;DHT22;22054;51.646;7.078;2022-07-03T07:13:36;21.10;80.10
35613;DHT22;22054;51.646;7.078;2022-07-03T07:16:02;21.10;94.20
35613;DHT22;22054;51.646;7.078;2022-07-03T07:18:28;21.10;99.90
35613;DHT22;22054;51.646;7.078;2022-07-03T07:20:53;21.60;99.90
35613;DHT22;22054;51.646;7.078;2022-07-03T07:23:19;21.50;1.00
35613;DHT22;22054;51.646;7.078;2022-07-03T07:25:45;21.70;1.00
35613;DHT22;22054;51.646;7.078;2022-07-03T07:28:10;21.80;1.00
35613;DHT22;22054;51.646;7.078;2022-07-03T07:30:36;22.00;1.00
35613;DHT22;22054;51.646;7.078;2022-07-03T07:33:02;21.90;99.90
35613;DHT22;22054;51.646;7.078;2022-07-03T07:35:27;21.80;1.00
35613;DHT22;22054;51.646;7.078;2022-07-03T07:37:53;21.80;1.00
35613;DHT22;22054;51.646;7.078;2022-07-03T07:40:18;21.80;1.00
35613;DHT22;22054;51.646;7.078;2022-07-03T07:42:44;21.80;1.00
35613;DHT22;22054;51.646;7.078;2022-07-03T07:45:10;22.00;1.00
35613;DHT22;22054;51.646;7.078;2022-07-03T07:47:36;22.10;99.90
35613;DHT22;22054;51.646;7.078;2022-07-03T07:50:02;21.90;99.90
35613;DHT22;22054;51.646;7.078;2022-07-03T07:52:28;22.30;99.90
35613;DHT22;22054;51.646;7.078;2022-07-03T07:54:54;22.60;81.30
35613;DHT22;22054;51.646;7.078;2022-07-03T07:57:20;22.60;1.00
35613;DHT22;22054;51.646;7.078;2022-07-03T07:59:45;22.30;1.00
35613;DHT22;22054;51.646;7.078;2022-07-03T08:02:11;22.40;55.00
35613;DHT22;22054;51.646;7.078;2022-07-03T08:04:55;22.40;99.90
35613;DHT22;22054;51.646;7.078;2022-07-03T08:07:39;22.50;19.50
35613;DHT22;22054;51.646;7.078;2022-07-03T08:10:05;22.40;1.00
35613;DHT22;22054;51.646;7.078;2022-07-03T08:12:30;22.60;1.00
35613;DHT22;22054;51.646;7.078;2022-07-03T08:14:56;22.80;1.00
35613;DHT22;22054;51.646;7.078;2022-07-03T08:17:22;22.90;1.00
35613;DHT22;22054;51.646;7.078;2022-07-03T08:19:47;23.00;1.00
35613;DHT22;22054;51.646;7.078;2022-07-03T08:22:13;23.20;1.00
35613;DHT22;22054;51.646;7.078;2022-07-03T08:24:38;23.20;1.00
35613;DHT22;22054;51.646;7.078;2022-07-03T08:27:04;22.90;1.00
35613;DHT22;22054;51.646;7.078;2022-07-03T08:29:30;22.90;1.00
35613;DHT22;22054;51.646;7.078;2022-07-03T08:31:56;23.00;1.00
35613;DHT22;22054;51.646;7.078;2022-07-03T08:34:22;23.20;1.00
35613;DHT22;22054;51.646;7.078;2022-07-03T08:36:48;22.90;1.00
35613;DHT22;22054;51.646;7.078;2022-07-03T08:39:14;23.00;1.00
35613;DHT22;22054;51.646;7.078;2022-07-03T08:41:40;23.10;1.00
35613;DHT22;22054;51.646;7.078;2022-07-03T08:44:07;23.30;1.00
35613;DHT22;22054;51.646;7.078;2022-07-03T08:46:34;23.50;1.00
35613;DHT22;22054;51.646;7.078;2022-07-03T08:49:00;23.60;1.00
35613;DHT22;22054;51.646;7.078;2022-07-03T08:51:27;23.70;1.00
35613;DHT22;22054;51.646;7.078;2022-07-03T08:53:53;23.80;1.00
35613;DHT22;22054;51.646;7.078;2022-07-03T08:56:22;23.80;99.90
35613;DHT22;22054;51.646;7.078;2022-07-03T08:58:48;23.70;99.90
35613;DHT22;22054;51.646;7.078;2022-07-03T09:01:14;23.40;99.90
35613;DHT22;22054;51.646;7.078;2022-07-03T09:03:41;23.10;1.00
35613;DHT22;22054;51.646;7.078;2022-07-03T09:06:07;23.20;1.00
35613;DHT22;22054;51.646;7.078;2022-07-03T09:08:33;23.10;99.90
35613;DHT22;22054;51.646;7.078;2022-07-03T09:10:59;23.10;99.90
35613;DHT22;22054;51.646;7.078;2022-07-03T09:13:27;23.20;99.90
35613;DHT22;22054;51.646;7.078;2022-07-03T09:15:53;23.20;99.90
35613;DHT22;22054;51.646;7.078;2022-07-03T09:18:21;23.10;99.90
35613;DHT22;22054;51.646;7.078;2022-07-03T09:21:02;23.50;99.90
35613;DHT22;22054;51.646;7.078;2022-07-03T09:23:34;23.50;99.90
35613;DHT22;22054;51.646;7.078;2022-07-03T09:26:01;23.40;99.90
35613;DHT22;22054;51.646;7.078;2022-07-03T09:28:41;23.40;99.90
35613;DHT22;22054;51.646;7.078;2022-07-03T09:31:17;23.30;99.90
35613;DHT22;22054;51.646;7.078;2022-07-03T09:36:47;23.40;99.90
35613;DHT22;22054;51.646;7.078;2022-07-03T09:39:23;23.60;99.90
35613;DHT22;22054;51.646;7.078;2022-07-03T09:41:51;23.70;99.90
35613;DHT22;22054;51.646;7.078;2022-07-03T09:47:08;24.40;99.90
35613;DHT22;22054;51.646;7.078;2022-07-03T09:49:46;24.40;99.90
35613;DHT22;22054;51.646;7.078;2022-07-03T09:52:38;24.60;99.90
35613;DHT22;22054;51.646;7.078;2022-07-03T10:02:44;24.30;99.90
35613;DHT22;22054;51.646;7.078;2022-07-03T10:05:17;24.40;99.90
35613;DHT22;22054;51.646;7.078;2022-07-03T10:07:49;24.50;99.90
35613;DHT22;22054;51.646;7.078;2022-07-03T10:10:27;24.90;99.90
35613;DHT22;22054;51.646;7.078;2022-07-03T10:12:54;25.00;99.90
35613;DHT22;22054;51.646;7.078;2022-07-03T10:15:21;24.90;99.90
35613;DHT22;22054;51.646;7.078;2022-07-03T10:17:49;24.90;99.90
35613;DHT22;22054;51.646;7.078;2022-07-03T10:20:29;24.90;99.90
35613;DHT22;22054;51.646;7.078;2022-07-03T10:22:55;25.00;99.90
35613;DHT22;22054;51.646;7.078;2022-07-03T10:25:22;25.30;99.90
35613;DHT22;22054;51.646;7.078;2022-07-03T10:27:48;25.60;99.90
35613;DHT22;22054;51.646;7.078;2022-07-03T10:30:14;25.90;99.90
35613;DHT22;22054;51.646;7.078;2022-07-03T10:32:42;25.60;99.90
35613;DHT22;22054;51.646;7.078;2022-07-03T10:35:10;25.40;99.90
35613;DHT22;22054;51.646;7.078;2022-07-03T10:37:41;25.70;99.90
35613;DHT22;22054;51.646;7.078;2022-07-03T10:40:18;26.00;99.90
35613;DHT22;22054;51.646;7.078;2022-07-03T10:43:12;26.30;99.90
35613;DHT22;22054;51.646;7.078;2022-07-03T10:59:22;25.60;99.90
35613;DHT22;22054;51.646;7.078;2022-07-03T11:01:48;26.00;99.90
35613;DHT22;22054;51.646;7.078;2022-07-03T11:04:14;25.90;99.90
35613;DHT22;22054;51.646;7.078;2022-07-03T11:09:11;26.50;88.80
35613;DHT22;22054;51.646;7.078;2022-07-03T11:11:45;26.90;94.20
35613;DHT22;22054;51.646;7.078;2022-07-03T11:14:21;27.10;52.00
35613;DHT22;22054;51.646;7.078;2022-07-03T11:16:48;26.70;40.60
35613;DHT22;22054;51.646;7.078;2022-07-03T11:19:14;26.60;25.60
35613;DHT22;22054;51.646;7.078;2022-07-03T11:21:41;26.40;25.40
35613;DHT22;22054;51.646;7.078;2022-07-03T11:26:40;26.90;14.30
35613;DHT22;22054;51.646;7.078;2022-07-03T11:29:06;26.90;4.50
35613;DHT22;22054;51.646;7.078;2022-07-03T11:31:31;27.20;1.00
35613;DHT22;22054;51.646;7.078;2022-07-03T11:33:58;27.10;1.00
35613;DHT22;22054;51.646;7.078;2022-07-03T11:36:28;26.60;1.00
35613;DHT22;22054;51.646;7.078;2022-07-03T11:41:21;27.80;1.00
35613;DHT22;22054;51.646;7.078;2022-07-03T11:43:47;28.60;1.00
35613;DHT22;22054;51.646;7.078;2022-07-03T11:46:21;28.40;1.00
35613;DHT22;22054;51.646;7.078;2022-07-03T11:48:47;29.00;1.00
35613;DHT22;22054;51.646;7.078;2022-07-03T11:51:13;29.10;1.00
35613;DHT22;22054;51.646;7.078;2022-07-03T11:53:39;28.60;1.00
35613;DHT22;22054;51.646;7.078;2022-07-03T11:56:12;28.60;1.00
35613;DHT22;22054;51.646;7.078;2022-07-03T12:03:48;27.00;1.00
35613;DHT22;22054;51.646;7.078;2022-07-03T12:06:14;28.60;1.00
35613;DHT22;22054;51.646;7.078;2022-07-03T12:08:40;29.80;1.00
35613;DHT22;22054;51.646;7.078;2022-07-03T12:11:11;29.50;1.00
35613;DHT22;22054;51.646;7.078;2022-07-03T12:13:38;30.00;1.00
35613;DHT22;22054;51.646;7.078;2022-07-03T12:16:05;30.70;1.00
35613;DHT22;22054;51.646;7.078;2022-07-03T12:18:43;30.70;1.00
35613;DHT22;22054;51.646;7.078;2022-07-03T12:21:20;32.00;1.00
35613;DHT22;22054;51.646;7.078;2022-07-03T12:23:54;32.80;1.00
35613;DHT22;22054;51.646;7.078;2022-07-03T12:26:28;31.90;1.00
35613;DHT22;22054;51.646;7.078;2022-07-03T12:28:54;32.30;1.00
35613;DHT22;22054;51.646;7.078;2022-07-03T12:31:21;32.60;1.00
35613;DHT22;22054;51.646;7.078;2022-07-03T12:33:47;33.90;1.00
35613;DHT22;22054;51.646;7.078;2022-07-03T12:36:13;34.40;1.00
35613;DHT22;22054;51.646;7.078;2022-07-03T12:38:38;33.60;1.00
35613;DHT22;22054;51.646;7.078;2022-07-03T12:41:06;32.80;1.00
35613;DHT22;22054;51.646;7.078;2022-07-03T12:43:39;32.10;1.00
35613;DHT22;22054;51.646;7.078;2022-07-03T12:46:15;31.50;1.00
35613;DHT22;22054;51.646;7.078;2022-07-03T12:54:28;32.60;1.00
35613;DHT22;22054;51.646;7.078;2022-07-03T12:57:05;33.40;1.00
35613;DHT22;22054;51.646;7.078;2022-07-03T13:02:35;34.20;1.00
35613;DHT22;22054;51.646;7.078;2022-07-03T13:05:13;35.60;1.00
35613;DHT22;22054;51.646;7.078;2022-07-03T13:07:40;37.10;1.00
35613;DHT22;22054;51.646;7.078;2022-07-03T13:10:06;37.70;1.00
35613;DHT22;22054;51.646;7.078;2022-07-03T13:12:32;38.40;1.00
35613;DHT22;22054;51.646;7.078;2022-07-03T13:14:59;38.90;1.00
35613;DHT22;22054;51.646;7.078;2022-07-03T13:20:18;38.30;1.00
35613;DHT22;22054;51.646;7.078;2022-07-03T13:23:05;37.80;1.00
35613;DHT22;22054;51.646;7.078;2022-07-03T13:25:32;36.30;1.00
35613;DHT22;22054;51.646;7.078;2022-07-03T13:28:10;36.90;1.00
35613;DHT22;22054;51.646;7.078;2022-07-03T13:30:37;38.10;1.00
35613;DHT22;22054;51.646;7.078;2022-07-03T13:33:03;39.20;1.00
35613;DHT22;22054;51.646;7.078;2022-07-03T13:35:29;38.80;1.00
35613;DHT22;22054;51.646;7.078;2022-07-03T13:37:55;38.90;1.00
35613;DHT22;22054;51.646;7.078;2022-07-03T13:40:21;38.30;1.00
35613;DHT22;22054;51.646;7.078;2022-07-03T13:42:46;36.70;1.00
35613;DHT22;22054;51.646;7.078;2022-07-03T13:45:12;36.20;1.00
35613;DHT22;22054;51.646;7.078;2022-07-03T13:47:38;36.50;1.00
35613;DHT22;22054;51.646;7.078;2022-07-03T13:50:03;37.50;1.00
35613;DHT22;22054;51.646;7.078;2022-07-03T13:52:29;38.40;1.00
35613;DHT22;22054;51.646;7.078;2022-07-03T13:54:55;39.10;1.00
35613;DHT22;22054;51.646;7.078;2022-07-03T13:57:21;38.20;1.00
35613;DHT22;22054;51.646;7.078;2022-07-03T13:59:46;35.40;1.00
35613;DHT22;22054;51.646;7.078;2022-07-03T14:02:12;32.20;1.00
35613;DHT22;22054;51.646;7.078;2022-07-03T14:04:38;31.00;1.00
35613;DHT22;22054;51.646;7.078;2022-07-03T14:07:04;30.30;1.00
35613;DHT22;22054;51.646;7.078;2022-07-03T14:09:30;29.90;1.00
35613;DHT22;22054;51.646;7.078;2022-07-03T14:11:55;29.80;1.00
35613;DHT22;22054;51.646;7.078;2022-07-03T14:14:21;30.30;1.00
35613;DHT22;22054;51.646;7.078;2022-07-03T14:16:47;31.20;1.00
35613;DHT22;22054;51.646;7.078;2022-07-03T14:19:12;30.90;1.00
35613;DHT22;22054;51.646;7.078;2022-07-03T14:21:38;30.30;1.00
35613;DHT22;22054;51.646;7.078;2022-07-03T14:24:04;30.20;1.00
35613;DHT22;22054;51.646;7.078;2022-07-03T14:26:30;30.00;1.00
35613;DHT22;22054;51.646;7.078;2022-07-03T14:29:14;29.80;1.00
35613;DHT22;22054;51.646;7.078;2022-07-03T14:31:58;29.40;1.00
35613;DHT22;22054;51.646;7.078;2022-07-03T14:34:42;29.60;1.00
35613;DHT22;22054;51.646;7.078;2022-07-03T14:37:08;28.60;1.00
35613;DHT22;22054;51.646;7.078;2022-07-03T14:39:35;27.70;1.00
35613;DHT22;22054;51.646;7.078;2022-07-03T14:42:00;27.10;1.00
35613;DHT22;22054;51.646;7.078;2022-07-03T14:44:28;27.70;1.00
35613;DHT22;22054;51.646;7.078;2022-07-03T14:46:54;27.60;1.00
35613;DHT22;22054;51.646;7.078;2022-07-03T14:49:20;27.10;1.00
35613;DHT22;22054;51.646;7.078;2022-07-03T14:51:46;26.90;1.00
35613;DHT22;22054;51.646;7.078;2022-07-03T14:54:13;26.90;1.00
35613;DHT22;22054;51.646;7.078;2022-07-03T14:56:48;28.70;1.00
35613;DHT22;22054;51.646;7.078;2022-07-03T14:59:16;30.90;1.00
35613;DHT22;22054;51.646;7.078;2022-07-03T15:01:45;32.00;1.00
35613;DHT22;22054;51.646;7.078;2022-07-03T15:04:20;30.50;1.00
35613;DHT22;22054;51.646;7.078;2022-07-03T15:06:58;29.60;1.00
35613;DHT22;22054;51.646;7.078;2022-07-03T15:09:27;29.00;1.00
35613;DHT22;22054;51.646;7.078;2022-07-03T15:11:55;28.10;1.00
35613;DHT22;22054;51.646;7.078;2022-07-03T15:14:39;27.20;1.00
35613;DHT22;22054;51.646;7.078;2022-07-03T15:17:06;26.50;1.00
35613;DHT22;22054;51.646;7.078;2022-07-03T15:19:32;26.30;1.00
35613;DHT22;22054;51.646;7.078;2022-07-03T15:22:00;26.30;1.00
35613;DHT22;22054;51.646;7.078;2022-07-03T15:24:28;26.10;1.00
35613;DHT22;22054;51.646;7.078;2022-07-03T15:26:55;26.30;1.00
35613;DHT22;22054;51.646;7.078;2022-07-03T15:29:20;26.40;1.00
35613;DHT22;22054;51.646;7.078;2022-07-03T15:31:46;26.30;1.00
35613;DHT22;22054;51.646;7.078;2022-07-03T15:34:13;26.40;1.00
35613;DHT22;22054;51.646;7.078;2022-07-03T15:36:43;26.40;1.00
35613;DHT22;22054;51.646;7.078;2022-07-03T15:39:13;26.20;1.00
35613;DHT22;22054;51.646;7.078;2022-07-03T15:42:09;26.00;1.00
35613;DHT22;22054;51.646;7.078;2022-07-03T15:44:37;26.00;1.00
35613;DHT22;22054;51.646;7.078;2022-07-03T15:49:58;26.40;1.00
35613;DHT22;22054;51.646;7.078;2022-07-03T15:52:24;26.50;1.00
35613;DHT22;22054;51.646;7.078;2022-07-03T15:55:04;26.40;1.00
35613;DHT22;22054;51.646;7.078;2022-07-03T15:57:53;26.40;1.00
35613;DHT22;22054;51.646;7.078;2022-07-03T16:00:23;25.80;1.00
35613;DHT22;22054;51.646;7.078;2022-07-03T16:05:25;25.40;1.00
35613;DHT22;22054;51.646;7.078;2022-07-03T16:07:53;25.40;1.00
35613;DHT22;22054;51.646;7.078;2022-07-03T16:10:20;25.40;1.00
35613;DHT22;22054;51.646;7.078;2022-07-03T16:12:46;25.10;1.00
35613;DHT22;22054;51.646;7.078;2022-07-03T16:15:14;25.00;1.00
35613;DHT22;22054;51.646;7.078;2022-07-03T16:17:40;25.00;1.00
35613;DHT22;22054;51.646;7.078;2022-07-03T16:20:07;25.10;1.00
35613;DHT22;22054;51.646;7.078;2022-07-03T16:22:34;25.10;1.00
35613;DHT22;22054;51.646;7.078;2022-07-03T16:25:01;25.20;1.00
35613;DHT22;22054;51.646;7.078;2022-07-03T16:27:28;25.20;1.00
35613;DHT22;22054;51.646;7.078;2022-07-03T16:29:54;25.20;1.00
35613;DHT22;22054;51.646;7.078;2022-07-03T16:32:20;25.10;1.00
35613;DHT22;22054;51.646;7.078;2022-07-03T16:40:22;24.70;1.00
35613;DHT22;22054;51.646;7.078;2022-07-03T16:42:49;24.40;1.00
35613;DHT22;22054;51.646;7.078;2022-07-03T16:45:16;24.50;1.00
35613;DHT22;22054;51.646;7.078;2022-07-03T16:47:44;24.50;1.00
35613;DHT22;22054;51.646;7.078;2022-07-03T16:50:15;24.40;1.00
35613;DHT22;22054;51.646;7.078;2022-07-03T16:52:43;24.40;1.00
35613;DHT22;22054;51.646;7.078;2022-07-03T16:55:13;24.30;1.00
35613;DHT22;22054;51.646;7.078;2022-07-03T16:57:45;24.20;1.00
35613;DHT22;22054;51.646;7.078;2022-07-03T17:00:13;24.10;1.00
35613;DHT22;22054;51.646;7.078;2022-07-03T17:02:41;24.20;1.00
35613;DHT22;22054;51.646;7.078;2022-07-03T17:05:11;24.20;1.00
35613;DHT22;22054;51.646;7.078;2022-07-03T17:07:39;24.30;1.00
35613;DHT22;22054;51.646;7.078;2022-07-03T17:10:07;24.50;1.00
35613;DHT22;22054;51.646;7.078;2022-07-03T17:12:34;24.60;1.00
35613;DHT22;22054;51.646;7.078;2022-07-03T17:15:00;24.70;1.00
35613;DHT22;22054;51.646;7.078;2022-07-03T17:17:25;24.90;1.00
35613;DHT22;22054;51.646;7.078;2022-07-03T17:19:59;24.90;1.00
35613;DHT22;22054;51.646;7.078;2022-07-03T17:22:27;24.80;1.00
35613;DHT22;22054;51.646;7.078;2022-07-03T17:24:54;24.70;1.00